sensor_id;sensor_type;location;lat;lon;timestamp;P1;durP1;ratioP1;P2;durP2;ratioP2
22764;SDS011;11549;50.852;3.816;2022-12-18T00:00:06;80.22;;;41.88;;
22764;SDS011;11549;50.852;3.816;2022-12-18T00:02:37;76.38;;;41.92;;
22764;SDS011;11549;50.852;3.816;2022-12-18T00:05:06;76.93;;;41.97;;
22764;SDS011;11549;50.852;3.816;2022-12-18T00:07:35;82.55;;;42.60;;
22764;SDS011;11549;50.852;3.816;2022-12-18T00:10:04;81.93;;;42.60;;
22764;SDS011;11549;50.852;3.816;2022-12-18T00:12:34;81.88;;;42.80;;
22764;SDS011;11549;50.852;3.816;2022-12-18T00:15:02;78.75;;;41.80;;
22764;SDS011;11549;50.852;3.816;2022-12-18T00:17:31;77.28;;;39.38;;
22764;SDS011;11549;50.852;3.816;2022-12-18T00:20:04;83.72;;;42.75;;
22764;SDS011;11549;50.852;3.816;2022-12-18T00:22:33;76.40;;;40.83;;
22764;SDS011;11549;50.852;3.816;2022-12-18T00:25:01;79.07;;;41.85;;
22764;SDS011;11549;50.852;3.816;2022-12-18T00:27:30;77.35;;;41.00;;
22764;SDS011;11549;50.852;3.816;2022-12-18T00:29:58;81.30;;;42.67;;
22764;SDS011;11549;50.852;3.816;2022-12-18T00:32:26;78.00;;;42.53;;
22764;SDS011;11549;50.852;3.816;2022-12-18T00:34:55;76.57;;;41.13;;
22764;SDS011;11549;50.852;3.816;2022-12-18T00:37:24;78.93;;;41.45;;
22764;SDS011;11549;50.852;3.816;2022-12-18T00:39:53;84.03;;;44.35;;
22764;SDS011;11549;50.852;3.816;2022-12-18T00:42:21;81.38;;;41.58;;
22764;SDS011;11549;50.852;3.816;2022-12-18T00:45:08;77.28;;;42.00;;
22764;SDS011;11549;50.852;3.816;2022-12-18T00:47:38;78.40;;;42.85;;
22764;SDS011;11549;50.852;3.816;2022-12-18T00:50:07;78.50;;;42.38;;
22764;SDS011;11549;50.852;3.816;2022-12-18T00:52:38;86.80;;;43.95;;
22764;SDS011;11549;50.852;3.816;2022-12-18T00:55:06;86.28;;;43.67;;
22764;SDS011;11549;50.852;3.816;2022-12-18T00:57:35;83.75;;;42.72;;
22764;SDS011;11549;50.852;3.816;2022-12-18T01:00:04;80.53;;;42.70;;
22764;SDS011;11549;50.852;3.816;2022-12-18T01:02:34;79.40;;;41.78;;
22764;SDS011;11549;50.852;3.816;2022-12-18T01:05:03;82.85;;;41.47;;
22764;SDS011;11549;50.852;3.816;2022-12-18T01:07:32;76.70;;;41.58;;
22764;SDS011;11549;50.852;3.816;2022-12-18T01:10:02;84.80;;;43.35;;
22764;SDS011;11549;50.852;3.816;2022-12-18T01:12:31;82.93;;;42.38;;
22764;SDS011;11549;50.852;3.816;2022-12-18T01:14:59;79.90;;;41.20;;
22764;SDS011;11549;50.852;3.816;2022-12-18T01:17:28;86.35;;;42.95;;
22764;SDS011;11549;50.852;3.816;2022-12-18T01:19:56;83.25;;;42.17;;
22764;SDS011;11549;50.852;3.816;2022-12-18T01:22:25;82.43;;;42.15;;
22764;SDS011;11549;50.852;3.816;2022-12-18T01:24:53;85.68;;;43.95;;
22764;SDS011;11549;50.852;3.816;2022-12-18T01:27:23;82.38;;;43.03;;
22764;SDS011;11549;50.852;3.816;2022-12-18T01:29:51;81.72;;;42.03;;
22764;SDS011;11549;50.852;3.816;2022-12-18T01:32:19;83.68;;;43.40;;
22764;SDS011;11549;50.852;3.816;2022-12-18T01:34:48;84.97;;;42.05;;
22764;SDS011;11549;50.852;3.816;2022-12-18T01:37:16;82.43;;;42.50;;
22764;SDS011;11549;50.852;3.816;2022-12-18T01:39:45;87.40;;;44.38;;
22764;SDS011;11549;50.852;3.816;2022-12-18T01:42:14;87.63;;;44.80;;
22764;SDS011;11549;50.852;3.816;2022-12-18T01:47:49;81.82;;;42.60;;
22764;SDS011;11549;50.852;3.816;2022-12-18T01:50:20;86.22;;;42.90;;
22764;SDS011;11549;50.852;3.816;2022-12-18T01:52:51;91.43;;;43.75;;
22764;SDS011;11549;50.852;3.816;2022-12-18T01:55:22;84.93;;;43.05;;
22764;SDS011;11549;50.852;3.816;2022-12-18T01:57:52;80.60;;;41.75;;
22764;SDS011;11549;50.852;3.816;2022-12-18T02:00:25;81.57;;;43.13;;
22764;SDS011;11549;50.852;3.816;2022-12-18T02:02:54;86.18;;;43.97;;
22764;SDS011;11549;50.852;3.816;2022-12-18T02:05:25;81.38;;;42.22;;
22764;SDS011;11549;50.852;3.816;2022-12-18T02:08:09;86.18;;;42.88;;
22764;SDS011;11549;50.852;3.816;2022-12-18T02:10:45;76.82;;;42.50;;
22764;SDS011;11549;50.852;3.816;2022-12-18T02:13:19;78.50;;;40.58;;
22764;SDS011;11549;50.852;3.816;2022-12-18T02:15:56;73.35;;;37.60;;
22764;SDS011;11549;50.852;3.816;2022-12-18T02:18:32;72.43;;;37.03;;
22764;SDS011;11549;50.852;3.816;2022-12-18T02:21:07;71.32;;;37.78;;
22764;SDS011;11549;50.852;3.816;2022-12-18T02:23:46;71.43;;;36.17;;
22764;SDS011;11549;50.852;3.816;2022-12-18T02:26:22;63.50;;;33.45;;
22764;SDS011;11549;50.852;3.816;2022-12-18T02:28:56;62.42;;;32.92;;
22764;SDS011;11549;50.852;3.816;2022-12-18T02:31:40;61.17;;;32.92;;
22764;SDS011;11549;50.852;3.816;2022-12-18T02:34:12;63.10;;;32.35;;
22764;SDS011;11549;50.852;3.816;2022-12-18T02:36:43;57.75;;;31.20;;
22764;SDS011;11549;50.852;3.816;2022-12-18T02:39:13;62.00;;;32.30;;
22764;SDS011;11549;50.852;3.816;2022-12-18T02:41:45;61.92;;;30.92;;
22764;SDS011;11549;50.852;3.816;2022-12-18T02:44:15;57.65;;;30.05;;
22764;SDS011;11549;50.852;3.816;2022-12-18T02:46:43;70.95;;;34.50;;
22764;SDS011;11549;50.852;3.816;2022-12-18T02:49:21;64.20;;;33.33;;
22764;SDS011;11549;50.852;3.816;2022-12-18T02:52:00;66.75;;;33.60;;
22764;SDS011;11549;50.852;3.816;2022-12-18T02:54:39;67.55;;;34.67;;
22764;SDS011;11549;50.852;3.816;2022-12-18T02:57:19;64.88;;;34.22;;
22764;SDS011;11549;50.852;3.816;2022-12-18T02:59:55;61.67;;;32.95;;
22764;SDS011;11549;50.852;3.816;2022-12-18T03:02:26;71.45;;;35.83;;
22764;SDS011;11549;50.852;3.816;2022-12-18T03:05:03;69.80;;;35.08;;
22764;SDS011;11549;50.852;3.816;2022-12-18T03:07:38;70.20;;;35.95;;
22764;SDS011;11549;50.852;3.816;2022-12-18T03:10:18;70.18;;;35.40;;
22764;SDS011;11549;50.852;3.816;2022-12-18T03:12:53;70.75;;;36.58;;
22764;SDS011;11549;50.852;3.816;2022-12-18T03:15:27;70.47;;;35.67;;
22764;SDS011;11549;50.852;3.816;2022-12-18T03:17:59;71.72;;;36.85;;
22764;SDS011;11549;50.852;3.816;2022-12-18T03:20:31;66.13;;;35.95;;
22764;SDS011;11549;50.852;3.816;2022-12-18T03:23:04;69.03;;;36.17;;
22764;SDS011;11549;50.852;3.816;2022-12-18T03:25:38;68.43;;;35.70;;
22764;SDS011;11549;50.852;3.816;2022-12-18T03:28:12;62.78;;;34.83;;
22764;SDS011;11549;50.852;3.816;2022-12-18T03:33:13;67.68;;;33.42;;
22764;SDS011;11549;50.852;3.816;2022-12-18T03:35:46;66.47;;;34.15;;
22764;SDS011;11549;50.852;3.816;2022-12-18T03:38:15;64.82;;;34.58;;
22764;SDS011;11549;50.852;3.816;2022-12-18T03:40:45;67.65;;;34.17;;
22764;SDS011;11549;50.852;3.816;2022-12-18T03:43:24;61.40;;;31.20;;
22764;SDS011;11549;50.852;3.816;2022-12-18T03:46:01;61.35;;;32.72;;
22764;SDS011;11549;50.852;3.816;2022-12-18T03:48:34;58.67;;;31.48;;
22764;SDS011;11549;50.852;3.816;2022-12-18T03:51:09;60.88;;;31.45;;
22764;SDS011;11549;50.852;3.816;2022-12-18T03:53:42;55.63;;;28.70;;
22764;SDS011;11549;50.852;3.816;2022-12-18T03:56:17;58.72;;;29.67;;
22764;SDS011;11549;50.852;3.816;2022-12-18T03:58:50;55.65;;;29.35;;
22764;SDS011;11549;50.852;3.816;2022-12-18T04:01:21;52.60;;;29.05;;
22764;SDS011;11549;50.852;3.816;2022-12-18T04:06:22;52.97;;;27.25;;
22764;SDS011;11549;50.852;3.816;2022-12-18T04:08:51;51.10;;;28.38;;
22764;SDS011;11549;50.852;3.816;2022-12-18T04:11:20;50.28;;;26.95;;
22764;SDS011;11549;50.852;3.816;2022-12-18T04:13:50;55.05;;;28.13;;
22764;SDS011;11549;50.852;3.816;2022-12-18T04:16:23;52.25;;;28.08;;
22764;SDS011;11549;50.852;3.816;2022-12-18T04:18:51;56.15;;;29.35;;
22764;SDS011;11549;50.852;3.816;2022-12-18T04:21:20;53.13;;;29.30;;
22764;SDS011;11549;50.852;3.816;2022-12-18T04:23:49;53.22;;;29.35;;
22764;SDS011;11549;50.852;3.816;2022-12-18T04:26:17;57.13;;;30.42;;
22764;SDS011;11549;50.852;3.816;2022-12-18T04:28:45;56.22;;;29.60;;
22764;SDS011;11549;50.852;3.816;2022-12-18T04:31:15;53.90;;;28.90;;
22764;SDS011;11549;50.852;3.816;2022-12-18T04:33:44;56.28;;;29.30;;
22764;SDS011;11549;50.852;3.816;2022-12-18T04:36:12;60.00;;;30.75;;
22764;SDS011;11549;50.852;3.816;2022-12-18T04:38:41;55.22;;;30.15;;
22764;SDS011;11549;50.852;3.816;2022-12-18T04:41:09;54.50;;;29.52;;
22764;SDS011;11549;50.852;3.816;2022-12-18T04:43:37;56.78;;;28.45;;
22764;SDS011;11549;50.852;3.816;2022-12-18T04:46:06;57.15;;;29.15;;
22764;SDS011;11549;50.852;3.816;2022-12-18T04:48:37;50.47;;;27.27;;
22764;SDS011;11549;50.852;3.816;2022-12-18T04:51:06;49.53;;;24.88;;
22764;SDS011;11549;50.852;3.816;2022-12-18T04:53:35;46.67;;;25.13;;
22764;SDS011;11549;50.852;3.816;2022-12-18T04:56:05;48.10;;;25.55;;
22764;SDS011;11549;50.852;3.816;2022-12-18T04:58:35;50.90;;;25.58;;
22764;SDS011;11549;50.852;3.816;2022-12-18T05:01:04;43.15;;;24.17;;
22764;SDS011;11549;50.852;3.816;2022-12-18T05:03:33;45.42;;;23.83;;
22764;SDS011;11549;50.852;3.816;2022-12-18T05:06:04;46.30;;;25.05;;
22764;SDS011;11549;50.852;3.816;2022-12-18T05:08:34;46.20;;;24.52;;
22764;SDS011;11549;50.852;3.816;2022-12-18T05:11:03;43.28;;;24.73;;
22764;SDS011;11549;50.852;3.816;2022-12-18T05:13:33;49.53;;;25.35;;
22764;SDS011;11549;50.852;3.816;2022-12-18T05:16:03;46.10;;;23.92;;
22764;SDS011;11549;50.852;3.816;2022-12-18T05:18:32;41.60;;;24.08;;
22764;SDS011;11549;50.852;3.816;2022-12-18T05:21:01;42.78;;;24.05;;
22764;SDS011;11549;50.852;3.816;2022-12-18T05:23:31;48.33;;;25.00;;
22764;SDS011;11549;50.852;3.816;2022-12-18T05:26:00;45.90;;;25.33;;
22764;SDS011;11549;50.852;3.816;2022-12-18T05:28:31;40.83;;;23.10;;
22764;SDS011;11549;50.852;3.816;2022-12-18T05:31:02;40.67;;;22.70;;
22764;SDS011;11549;50.852;3.816;2022-12-18T05:33:32;41.25;;;23.70;;
22764;SDS011;11549;50.852;3.816;2022-12-18T05:36:02;38.40;;;22.50;;
22764;SDS011;11549;50.852;3.816;2022-12-18T05:38:34;37.40;;;21.58;;
22764;SDS011;11549;50.852;3.816;2022-12-18T05:41:04;37.60;;;21.67;;
22764;SDS011;11549;50.852;3.816;2022-12-18T05:43:33;36.78;;;20.77;;
22764;SDS011;11549;50.852;3.816;2022-12-18T05:46:03;35.20;;;20.38;;
22764;SDS011;11549;50.852;3.816;2022-12-18T05:48:33;34.53;;;20.17;;
22764;SDS011;11549;50.852;3.816;2022-12-18T05:51:05;38.33;;;21.50;;
22764;SDS011;11549;50.852;3.816;2022-12-18T05:53:36;36.10;;;20.92;;
22764;SDS011;11549;50.852;3.816;2022-12-18T05:56:06;36.42;;;21.02;;
22764;SDS011;11549;50.852;3.816;2022-12-18T05:58:36;36.38;;;20.45;;
22764;SDS011;11549;50.852;3.816;2022-12-18T06:01:08;38.85;;;21.10;;
22764;SDS011;11549;50.852;3.816;2022-12-18T06:03:38;35.28;;;20.95;;
22764;SDS011;11549;50.852;3.816;2022-12-18T06:06:14;42.00;;;22.77;;
22764;SDS011;11549;50.852;3.816;2022-12-18T06:08:45;38.58;;;21.58;;
22764;SDS011;11549;50.852;3.816;2022-12-18T06:11:15;40.28;;;23.92;;
22764;SDS011;11549;50.852;3.816;2022-12-18T06:13:45;40.10;;;22.70;;
22764;SDS011;11549;50.852;3.816;2022-12-18T06:16:13;41.10;;;23.75;;
22764;SDS011;11549;50.852;3.816;2022-12-18T06:18:42;41.80;;;23.55;;
22764;SDS011;11549;50.852;3.816;2022-12-18T06:21:10;39.40;;;23.23;;
22764;SDS011;11549;50.852;3.816;2022-12-18T06:23:39;38.85;;;23.48;;
22764;SDS011;11549;50.852;3.816;2022-12-18T06:26:11;39.05;;;22.15;;
22764;SDS011;11549;50.852;3.816;2022-12-18T06:28:40;38.50;;;21.92;;
22764;SDS011;11549;50.852;3.816;2022-12-18T06:31:09;36.08;;;20.70;;
22764;SDS011;11549;50.852;3.816;2022-12-18T06:33:37;33.35;;;19.42;;
22764;SDS011;11549;50.852;3.816;2022-12-18T06:36:08;30.98;;;17.98;;
22764;SDS011;11549;50.852;3.816;2022-12-18T06:38:41;28.38;;;15.73;;
22764;SDS011;11549;50.852;3.816;2022-12-18T06:41:12;29.95;;;16.83;;
22764;SDS011;11549;50.852;3.816;2022-12-18T06:43:41;29.55;;;16.50;;
22764;SDS011;11549;50.852;3.816;2022-12-18T06:46:10;27.70;;;15.68;;
22764;SDS011;11549;50.852;3.816;2022-12-18T06:48:39;28.92;;;15.43;;
22764;SDS011;11549;50.852;3.816;2022-12-18T06:51:08;26.48;;;15.50;;
22764;SDS011;11549;50.852;3.816;2022-12-18T06:53:36;24.10;;;15.32;;
22764;SDS011;11549;50.852;3.816;2022-12-18T06:56:06;26.85;;;14.77;;
22764;SDS011;11549;50.852;3.816;2022-12-18T06:58:37;25.77;;;13.88;;
22764;SDS011;11549;50.852;3.816;2022-12-18T07:01:07;25.13;;;14.27;;
22764;SDS011;11549;50.852;3.816;2022-12-18T07:03:36;26.98;;;13.77;;
22764;SDS011;11549;50.852;3.816;2022-12-18T07:06:11;26.42;;;14.07;;
22764;SDS011;11549;50.852;3.816;2022-12-18T07:08:41;26.67;;;13.88;;
22764;SDS011;11549;50.852;3.816;2022-12-18T07:11:09;22.90;;;12.85;;
22764;SDS011;11549;50.852;3.816;2022-12-18T07:13:39;26.85;;;13.50;;
22764;SDS011;11549;50.852;3.816;2022-12-18T07:16:09;22.23;;;11.77;;
22764;SDS011;11549;50.852;3.816;2022-12-18T07:18:47;21.70;;;11.45;;
22764;SDS011;11549;50.852;3.816;2022-12-18T07:21:17;19.75;;;11.43;;
22764;SDS011;11549;50.852;3.816;2022-12-18T07:23:46;19.38;;;11.00;;
22764;SDS011;11549;50.852;3.816;2022-12-18T07:26:15;23.40;;;11.43;;
22764;SDS011;11549;50.852;3.816;2022-12-18T07:28:47;22.20;;;12.82;;
22764;SDS011;11549;50.852;3.816;2022-12-18T07:31:16;20.77;;;11.90;;
22764;SDS011;11549;50.852;3.816;2022-12-18T07:33:47;24.15;;;11.88;;
22764;SDS011;11549;50.852;3.816;2022-12-18T07:36:16;23.27;;;11.30;;
22764;SDS011;11549;50.852;3.816;2022-12-18T07:38:46;20.88;;;11.60;;
22764;SDS011;11549;50.852;3.816;2022-12-18T07:41:15;19.98;;;10.52;;
22764;SDS011;11549;50.852;3.816;2022-12-18T07:43:47;19.85;;;10.77;;
22764;SDS011;11549;50.852;3.816;2022-12-18T07:46:15;22.13;;;11.20;;
22764;SDS011;11549;50.852;3.816;2022-12-18T07:48:44;22.67;;;12.10;;
22764;SDS011;11549;50.852;3.816;2022-12-18T07:51:15;21.38;;;11.52;;
22764;SDS011;11549;50.852;3.816;2022-12-18T07:53:45;22.17;;;12.10;;
22764;SDS011;11549;50.852;3.816;2022-12-18T07:56:17;22.30;;;11.95;;
22764;SDS011;11549;50.852;3.816;2022-12-18T07:58:58;23.55;;;12.02;;
22764;SDS011;11549;50.852;3.816;2022-12-18T08:01:26;21.48;;;12.73;;
22764;SDS011;11549;50.852;3.816;2022-12-18T08:03:55;24.00;;;12.93;;
22764;SDS011;11549;50.852;3.816;2022-12-18T08:06:24;25.40;;;12.70;;
22764;SDS011;11549;50.852;3.816;2022-12-18T08:08:53;23.48;;;12.52;;
22764;SDS011;11549;50.852;3.816;2022-12-18T08:11:23;23.02;;;12.75;;
22764;SDS011;11549;50.852;3.816;2022-12-18T08:13:52;23.20;;;12.55;;
22764;SDS011;11549;50.852;3.816;2022-12-18T08:16:22;23.15;;;11.95;;
22764;SDS011;11549;50.852;3.816;2022-12-18T08:18:51;21.52;;;11.68;;
22764;SDS011;11549;50.852;3.816;2022-12-18T08:21:21;21.33;;;11.75;;
22764;SDS011;11549;50.852;3.816;2022-12-18T08:23:52;20.33;;;11.35;;
22764;SDS011;11549;50.852;3.816;2022-12-18T08:26:22;19.40;;;11.65;;
22764;SDS011;11549;50.852;3.816;2022-12-18T08:28:53;19.60;;;11.00;;
22764;SDS011;11549;50.852;3.816;2022-12-18T08:31:23;19.98;;;11.07;;
22764;SDS011;11549;50.852;3.816;2022-12-18T08:33:53;20.10;;;11.43;;
22764;SDS011;11549;50.852;3.816;2022-12-18T08:36:22;21.38;;;12.68;;
22764;SDS011;11549;50.852;3.816;2022-12-18T08:38:52;23.38;;;12.18;;
22764;SDS011;11549;50.852;3.816;2022-12-18T08:41:21;23.05;;;13.60;;
22764;SDS011;11549;50.852;3.816;2022-12-18T08:43:49;21.33;;;12.05;;
22764;SDS011;11549;50.852;3.816;2022-12-18T08:46:38;23.52;;;13.45;;
22764;SDS011;11549;50.852;3.816;2022-12-18T08:49:08;19.45;;;11.70;;
22764;SDS011;11549;50.852;3.816;2022-12-18T08:51:37;21.90;;;12.93;;
22764;SDS011;11549;50.852;3.816;2022-12-18T08:54:06;23.48;;;11.85;;
22764;SDS011;11549;50.852;3.816;2022-12-18T08:56:35;20.92;;;11.90;;
22764;SDS011;11549;50.852;3.816;2022-12-18T08:59:03;19.60;;;11.23;;
22764;SDS011;11549;50.852;3.816;2022-12-18T09:01:31;21.00;;;11.48;;
22764;SDS011;11549;50.852;3.816;2022-12-18T09:04:02;20.48;;;11.55;;
22764;SDS011;11549;50.852;3.816;2022-12-18T09:06:32;20.50;;;11.73;;
22764;SDS011;11549;50.852;3.816;2022-12-18T09:09:01;21.90;;;11.60;;
22764;SDS011;11549;50.852;3.816;2022-12-18T09:11:30;20.52;;;11.85;;
22764;SDS011;11549;50.852;3.816;2022-12-18T09:14:00;23.15;;;11.52;;
22764;SDS011;11549;50.852;3.816;2022-12-18T09:16:30;23.17;;;12.90;;
22764;SDS011;11549;50.852;3.816;2022-12-18T09:19:03;22.35;;;12.70;;
22764;SDS011;11549;50.852;3.816;2022-12-18T09:21:33;23.13;;;13.10;;
22764;SDS011;11549;50.852;3.816;2022-12-18T09:24:11;23.65;;;12.70;;
22764;SDS011;11549;50.852;3.816;2022-12-18T09:26:41;23.20;;;12.90;;
22764;SDS011;11549;50.852;3.816;2022-12-18T09:29:12;23.38;;;12.77;;
22764;SDS011;11549;50.852;3.816;2022-12-18T09:31:44;22.75;;;13.13;;
22764;SDS011;11549;50.852;3.816;2022-12-18T09:34:14;23.75;;;13.45;;
22764;SDS011;11549;50.852;3.816;2022-12-18T09:36:42;22.58;;;13.48;;
22764;SDS011;11549;50.852;3.816;2022-12-18T09:39:12;22.52;;;12.60;;
22764;SDS011;11549;50.852;3.816;2022-12-18T09:41:44;23.55;;;13.05;;
22764;SDS011;11549;50.852;3.816;2022-12-18T09:44:18;24.75;;;13.98;;
22764;SDS011;11549;50.852;3.816;2022-12-18T09:46:52;21.17;;;12.55;;
22764;SDS011;11549;50.852;3.816;2022-12-18T09:49:27;22.08;;;13.75;;
22764;SDS011;11549;50.852;3.816;2022-12-18T09:51:59;20.80;;;13.00;;
22764;SDS011;11549;50.852;3.816;2022-12-18T09:54:33;24.48;;;13.90;;
22764;SDS011;11549;50.852;3.816;2022-12-18T09:57:06;27.27;;;13.82;;
22764;SDS011;11549;50.852;3.816;2022-12-18T09:59:38;22.30;;;13.45;;
22764;SDS011;11549;50.852;3.816;2022-12-18T10:02:19;24.05;;;14.15;;
22764;SDS011;11549;50.852;3.816;2022-12-18T10:04:54;27.55;;;14.00;;
22764;SDS011;11549;50.852;3.816;2022-12-18T10:07:33;25.55;;;14.23;;
22764;SDS011;11549;50.852;3.816;2022-12-18T10:10:21;24.15;;;13.70;;
22764;SDS011;11549;50.852;3.816;2022-12-18T10:13:00;26.90;;;14.85;;
22764;SDS011;11549;50.852;3.816;2022-12-18T10:15:40;25.10;;;14.43;;
22764;SDS011;11549;50.852;3.816;2022-12-18T10:18:22;24.85;;;14.02;;
22764;SDS011;11549;50.852;3.816;2022-12-18T10:21:00;25.63;;;14.77;;
22764;SDS011;11549;50.852;3.816;2022-12-18T10:23:37;29.27;;;15.70;;
22764;SDS011;11549;50.852;3.816;2022-12-18T10:26:14;26.40;;;15.02;;
22764;SDS011;11549;50.852;3.816;2022-12-18T10:28:43;36.22;;;17.65;;
22764;SDS011;11549;50.852;3.816;2022-12-18T10:31:12;31.33;;;16.88;;
22764;SDS011;11549;50.852;3.816;2022-12-18T10:33:44;32.67;;;16.35;;
22764;SDS011;11549;50.852;3.816;2022-12-18T10:36:14;32.53;;;16.13;;
22764;SDS011;11549;50.852;3.816;2022-12-18T10:38:43;31.38;;;16.50;;
22764;SDS011;11549;50.852;3.816;2022-12-18T10:41:23;31.77;;;16.63;;
22764;SDS011;11549;50.852;3.816;2022-12-18T10:44:11;32.53;;;16.92;;
22764;SDS011;11549;50.852;3.816;2022-12-18T10:46:43;30.02;;;16.35;;
22764;SDS011;11549;50.852;3.816;2022-12-18T10:49:21;28.67;;;15.90;;
22764;SDS011;11549;50.852;3.816;2022-12-18T10:51:53;26.52;;;15.73;;
22764;SDS011;11549;50.852;3.816;2022-12-18T10:54:34;29.73;;;16.38;;
22764;SDS011;11549;50.852;3.816;2022-12-18T10:57:16;28.33;;;16.48;;
22764;SDS011;11549;50.852;3.816;2022-12-18T10:59:57;29.10;;;16.73;;
22764;SDS011;11549;50.852;3.816;2022-12-18T11:02:29;33.60;;;17.42;;
22764;SDS011;11549;50.852;3.816;2022-12-18T11:05:25;31.30;;;18.73;;
22764;SDS011;11549;50.852;3.816;2022-12-18T11:07:55;32.55;;;18.17;;
22764;SDS011;11549;50.852;3.816;2022-12-18T11:10:25;30.90;;;19.08;;
22764;SDS011;11549;50.852;3.816;2022-12-18T11:13:08;36.25;;;19.67;;
22764;SDS011;11549;50.852;3.816;2022-12-18T11:15:39;33.65;;;19.63;;
22764;SDS011;11549;50.852;3.816;2022-12-18T11:18:15;33.92;;;19.73;;
22764;SDS011;11549;50.852;3.816;2022-12-18T11:20:50;36.55;;;20.77;;
22764;SDS011;11549;50.852;3.816;2022-12-18T11:23:25;38.35;;;21.20;;
22764;SDS011;11549;50.852;3.816;2022-12-18T11:25:56;34.63;;;20.55;;
22764;SDS011;11549;50.852;3.816;2022-12-18T11:31:18;37.45;;;21.48;;
22764;SDS011;11549;50.852;3.816;2022-12-18T11:33:51;35.53;;;21.25;;
22764;SDS011;11549;50.852;3.816;2022-12-18T11:36:44;34.88;;;20.65;;
22764;SDS011;11549;50.852;3.816;2022-12-18T11:39:17;37.47;;;21.75;;
22764;SDS011;11549;50.852;3.816;2022-12-18T11:41:49;37.03;;;21.90;;
22764;SDS011;11549;50.852;3.816;2022-12-18T11:44:42;36.08;;;20.92;;
22764;SDS011;11549;50.852;3.816;2022-12-18T11:47:16;43.53;;;22.27;;
22764;SDS011;11549;50.852;3.816;2022-12-18T11:49:53;38.50;;;22.08;;
22764;SDS011;11549;50.852;3.816;2022-12-18T11:52:23;38.35;;;22.25;;
22764;SDS011;11549;50.852;3.816;2022-12-18T11:54:56;42.38;;;22.77;;
22764;SDS011;11549;50.852;3.816;2022-12-18T11:57:31;38.78;;;22.65;;
22764;SDS011;11549;50.852;3.816;2022-12-18T12:00:11;40.72;;;21.92;;
22764;SDS011;11549;50.852;3.816;2022-12-18T12:02:46;40.60;;;22.55;;
22764;SDS011;11549;50.852;3.816;2022-12-18T12:05:38;42.05;;;22.58;;
22764;SDS011;11549;50.852;3.816;2022-12-18T12:08:14;39.47;;;22.85;;
22764;SDS011;11549;50.852;3.816;2022-12-18T12:10:55;44.13;;;24.15;;
22764;SDS011;11549;50.852;3.816;2022-12-18T12:13:36;42.67;;;23.45;;
22764;SDS011;11549;50.852;3.816;2022-12-18T12:16:13;42.85;;;24.88;;
22764;SDS011;11549;50.852;3.816;2022-12-18T12:18:49;43.40;;;24.52;;
22764;SDS011;11549;50.852;3.816;2022-12-18T12:21:33;41.95;;;23.75;;
22764;SDS011;11549;50.852;3.816;2022-12-18T12:24:11;44.38;;;23.98;;
22764;SDS011;11549;50.852;3.816;2022-12-18T12:26:58;44.28;;;25.10;;
22764;SDS011;11549;50.852;3.816;2022-12-18T12:29:37;40.38;;;24.02;;
22764;SDS011;11549;50.852;3.816;2022-12-18T12:32:20;42.33;;;23.80;;
22764;SDS011;11549;50.852;3.816;2022-12-18T12:35:02;46.13;;;25.13;;
22764;SDS011;11549;50.852;3.816;2022-12-18T12:37:42;47.22;;;25.65;;
22764;SDS011;11549;50.852;3.816;2022-12-18T12:40:22;43.72;;;24.20;;
22764;SDS011;11549;50.852;3.816;2022-12-18T12:43:22;43.88;;;24.55;;
22764;SDS011;11549;50.852;3.816;2022-12-18T12:46:00;47.70;;;26.08;;
22764;SDS011;11549;50.852;3.816;2022-12-18T12:48:35;46.45;;;24.80;;
22764;SDS011;11549;50.852;3.816;2022-12-18T12:51:12;45.75;;;24.50;;
22764;SDS011;11549;50.852;3.816;2022-12-18T12:53:44;46.08;;;25.67;;
22764;SDS011;11549;50.852;3.816;2022-12-18T12:56:14;50.13;;;26.45;;
22764;SDS011;11549;50.852;3.816;2022-12-18T12:58:49;47.00;;;26.33;;
22764;SDS011;11549;50.852;3.816;2022-12-18T13:01:25;45.42;;;25.65;;
22764;SDS011;11549;50.852;3.816;2022-12-18T13:04:05;51.70;;;25.63;;
22764;SDS011;11549;50.852;3.816;2022-12-18T13:06:46;46.70;;;26.25;;
22764;SDS011;11549;50.852;3.816;2022-12-18T13:09:22;49.40;;;25.98;;
22764;SDS011;11549;50.852;3.816;2022-12-18T13:11:50;52.70;;;26.77;;
22764;SDS011;11549;50.852;3.816;2022-12-18T13:14:37;49.08;;;26.88;;
22764;SDS011;11549;50.852;3.816;2022-12-18T13:17:26;48.90;;;26.33;;
22764;SDS011;11549;50.852;3.816;2022-12-18T13:20:04;48.70;;;26.05;;
22764;SDS011;11549;50.852;3.816;2022-12-18T13:22:43;49.92;;;26.60;;
22764;SDS011;11549;50.852;3.816;2022-12-18T13:25:33;48.03;;;25.98;;
22764;SDS011;11549;50.852;3.816;2022-12-18T13:28:07;48.83;;;25.17;;
22764;SDS011;11549;50.852;3.816;2022-12-18T13:30:51;51.85;;;26.33;;
22764;SDS011;11549;50.852;3.816;2022-12-18T13:33:38;51.13;;;25.52;;
22764;SDS011;11549;50.852;3.816;2022-12-18T13:36:30;47.60;;;25.58;;
22764;SDS011;11549;50.852;3.816;2022-12-18T13:48:28;54.25;;;27.25;;
22764;SDS011;11549;50.852;3.816;2022-12-18T13:51:00;51.47;;;27.45;;
22764;SDS011;11549;50.852;3.816;2022-12-18T13:53:33;51.97;;;26.80;;
22764;SDS011;11549;50.852;3.816;2022-12-18T13:56:06;46.63;;;26.50;;
22764;SDS011;11549;50.852;3.816;2022-12-18T13:58:35;54.63;;;28.10;;
22764;SDS011;11549;50.852;3.816;2022-12-18T14:01:04;48.78;;;25.60;;
22764;SDS011;11549;50.852;3.816;2022-12-18T14:03:34;51.22;;;26.90;;
22764;SDS011;11549;50.852;3.816;2022-12-18T14:06:03;50.17;;;27.52;;
22764;SDS011;11549;50.852;3.816;2022-12-18T14:08:37;52.60;;;26.92;;
22764;SDS011;11549;50.852;3.816;2022-12-18T14:11:07;51.88;;;26.00;;
22764;SDS011;11549;50.852;3.816;2022-12-18T14:13:48;50.72;;;26.30;;
22764;SDS011;11549;50.852;3.816;2022-12-18T14:16:17;50.78;;;25.90;;
22764;SDS011;11549;50.852;3.816;2022-12-18T14:18:48;56.40;;;27.52;;
22764;SDS011;11549;50.852;3.816;2022-12-18T14:21:30;58.70;;;29.13;;
22764;SDS011;11549;50.852;3.816;2022-12-18T14:24:05;55.83;;;27.60;;
22764;SDS011;11549;50.852;3.816;2022-12-18T14:26:40;50.00;;;26.02;;
22764;SDS011;11549;50.852;3.816;2022-12-18T14:29:18;53.78;;;27.40;;
22764;SDS011;11549;50.852;3.816;2022-12-18T14:32:09;55.10;;;27.75;;
22764;SDS011;11549;50.852;3.816;2022-12-18T14:34:45;53.75;;;27.58;;
22764;SDS011;11549;50.852;3.816;2022-12-18T14:37:15;58.97;;;29.40;;
22764;SDS011;11549;50.852;3.816;2022-12-18T14:39:54;51.97;;;27.48;;
22764;SDS011;11549;50.852;3.816;2022-12-18T14:42:24;58.97;;;28.48;;
22764;SDS011;11549;50.852;3.816;2022-12-18T14:48:08;52.90;;;27.25;;
22764;SDS011;11549;50.852;3.816;2022-12-18T14:50:53;53.65;;;26.90;;
22764;SDS011;11549;50.852;3.816;2022-12-18T14:53:23;52.92;;;26.05;;
22764;SDS011;11549;50.852;3.816;2022-12-18T14:56:12;59.80;;;27.45;;
22764;SDS011;11549;50.852;3.816;2022-12-18T14:58:44;53.60;;;26.50;;
22764;SDS011;11549;50.852;3.816;2022-12-18T15:01:18;49.70;;;25.20;;
22764;SDS011;11549;50.852;3.816;2022-12-18T15:03:49;51.33;;;25.25;;
22764;SDS011;11549;50.852;3.816;2022-12-18T15:06:24;51.78;;;25.52;;
22764;SDS011;11549;50.852;3.816;2022-12-18T15:08:55;54.20;;;25.58;;
22764;SDS011;11549;50.852;3.816;2022-12-18T15:11:25;53.00;;;25.85;;
22764;SDS011;11549;50.852;3.816;2022-12-18T15:13:57;52.07;;;25.77;;
22764;SDS011;11549;50.852;3.816;2022-12-18T15:16:27;52.80;;;25.77;;